Time;durP1;ratioP1;P1;durP2;ratioP2;P2;SDS_P1;SDS_P2;PMS_P1;PMS_P2;Temp;Humidity;BMP_temperature;BMP_pressure;BME280_temperature;BME280_humidity;BME280_pressure;Samples;Min_cycle;Max_cycle;Signal;HPM_P1;HPM_P2
2023/09/26 00:00:20;;;;;;;3.42;2.35;;;;;;;17.90;52.01;100500.28;4933240;29;20131;-76
2023/09/26 00:02:49;;;;;;;3.80;2.42;;;;;;;17.88;52.01;100499.53;4934316;29;20130;-76
2023/09/26 00:05:18;;;;;;;4.60;2.28;;;;;;;17.87;51.83;100497.84;4934014;29;20054;-74
2023/09/26 00:07:45;;;;;;;4.40;2.55;;;;;;;17.84;52.12;100498.94;4934426;29;20052;-74
2023/09/26 00:10:12;;;;;;;4.38;2.78;;;;;;;17.81;52.33;100505.34;4934322;29;20056;-77
2023/09/26 00:12:39;;;;;;;3.83;2.00;;;;;;;17.79;52.10;100506.41;4926824;29;20056;-76
2023/09/26 00:15:07;;;;;;;3.95;2.13;;;;;;;17.77;52.36;100511.84;4934122;29;20139;-75
2023/09/26 00:17:34;;;;;;;4.53;2.45;;;;;;;17.75;52.38;100508.44;4934257;29;20111;-76
2023/09/26 00:20:06;;;;;;;4.18;2.60;;;;;;;17.73;52.34;100498.88;4934354;29;20051;-76
2023/09/26 00:22:33;;;;;;;5.80;2.47;;;;;;;17.70;52.81;100497.28;4934000;29;20048;-74
2023/09/26 00:25:00;;;;;;;3.40;2.13;;;;;;;17.68;52.75;100500.06;4934015;29;20139;-76
2023/09/26 00:27:27;;;;;;;5.05;2.60;;;;;;;17.66;52.49;100504.69;4933941;29;20057;-75
2023/09/26 00:29:54;;;;;;;4.05;2.47;;;;;;;17.65;52.69;100515.44;4934162;29;20134;-75
2023/09/26 00:32:20;;;;;;;2.85;2.33;;;;;;;17.62;52.40;100508.53;4934108;29;20048;-78
2023/09/26 00:34:47;;;;;;;3.88;2.50;;;;;;;17.61;52.48;100508.66;4934115;29;20102;-74
2023/09/26 00:37:14;;;;;;;3.17;2.00;;;;;;;17.59;52.82;100516.75;4933673;29;20063;-76
2023/09/26 00:39:40;;;;;;;4.65;2.60;;;;;;;17.57;52.54;100510.69;4926173;29;20480;-76
2023/09/26 00:42:07;;;;;;;3.25;2.30;;;;;;;17.54;52.69;100506.41;4934134;29;20048;-77
2023/09/26 00:44:33;;;;;;;5.03;2.38;;;;;;;17.52;53.18;100505.69;4933708;29;20532;-74
2023/09/26 00:47:00;;;;;;;2.97;2.13;;;;;;;17.51;53.30;100503.16;4933642;29;20052;-75
2023/09/26 00:49:32;;;;;;;3.75;2.08;;;;;;;17.50;53.25;100501.47;4933767;29;20056;-73
2023/09/26 00:52:01;;;;;;;2.47;2.00;;;;;;;17.47;53.47;100502.53;4933725;29;20472;-75
2023/09/26 00:54:28;;;;;;;3.25;2.20;;;;;;;17.44;53.79;100495.63;4933841;29;20453;-75
2023/09/26 00:56:57;;;;;;;5.68;2.47;;;;;;;17.42;53.82;100496.72;4925742;29;20107;-77
2023/09/26 00:59:25;;;;;;;4.07;2.45;;;;;;;17.38;53.42;100493.41;4933519;29;20051;-74
2023/09/26 01:01:51;;;;;;;4.75;2.15;;;;;;;17.35;53.38;100496.31;4933229;29;20143;-75
2023/09/26 01:04:19;;;;;;;3.92;2.45;;;;;;;17.31;53.47;100503.66;4933251;29;20062;-74
2023/09/26 01:06:47;;;;;;;4.80;2.67;;;;;;;17.27;53.37;100496.88;4926117;29;20055;-74
2023/09/26 01:09:14;;;;;;;2.60;1.95;;;;;;;17.25;53.73;100503.25;4933220;29;20505;-75
2023/09/26 01:11:42;;;;;;;5.47;2.20;;;;;;;17.21;53.66;100492.00;4933630;29;20736;-75
2023/09/26 01:14:09;;;;;;;3.00;2.00;;;;;;;17.20;53.98;100495.63;4933427;29;20131;-75
2023/09/26 01:16:36;;;;;;;5.28;2.50;;;;;;;17.18;54.19;100494.88;4933257;29;20086;-76
2023/09/26 01:19:02;;;;;;;4.03;2.50;;;;;;;17.16;54.26;100495.00;4933362;29;20047;-74
2023/09/26 01:21:29;;;;;;;3.00;2.33;;;;;;;17.15;54.60;100490.66;4933622;29;20055;-76
2023/09/26 01:23:56;;;;;;;5.57;2.03;;;;;;;17.16;54.35;100494.16;4919540;29;20069;-75
2023/09/26 01:26:34;;;;;;;3.35;2.70;;;;;;;17.13;55.02;100491.72;4914720;29;20044;-76
2023/09/26 01:29:00;;;;;;;2.85;2.10;;;;;;;17.18;54.26;100492.22;4927645;29;20086;-76
2023/09/26 01:31:27;;;;;;;4.30;2.55;;;;;;;17.17;54.40;100480.75;4933100;29;20115;-76
2023/09/26 01:33:53;;;;;;;2.97;2.10;;;;;;;17.18;54.34;100478.94;4933398;29;20051;-75
2023/09/26 01:36:21;;;;;;;3.00;1.90;;;;;;;17.17;54.12;100483.41;4933058;29;20486;-76
2023/09/26 01:38:48;;;;;;;2.80;1.70;;;;;;;17.20;54.18;100482.34;4925983;29;20142;-76
2023/09/26 01:41:14;;;;;;;4.65;2.22;;;;;;;17.19;53.99;100477.97;4933535;29;20051;-77
2023/09/26 01:43:41;;;;;;;3.30;2.40;;;;;;;17.20;54.11;100474.34;4933094;29;20051;-74
2023/09/26 01:46:09;;;;;;;2.95;2.00;;;;;;;17.20;54.44;100469.03;4935872;29;20493;-75
2023/09/26 01:48:36;;;;;;;4.47;2.55;;;;;;;17.21;54.91;100472.53;4936804;29;20130;-74
2023/09/26 01:51:05;;;;;;;3.97;2.38;;;;;;;17.19;54.79;100459.34;4936397;29;20047;-75
2023/09/26 01:53:32;;;;;;;2.80;2.03;;;;;;;17.19;54.46;100467.31;4936396;29;20408;-74
2023/09/26 01:55:59;;;;;;;5.40;2.28;;;;;;;17.17;54.39;100454.16;4936755;29;20481;-73
2023/09/26 01:58:26;;;;;;;2.75;2.08;;;;;;;17.18;54.60;100457.66;4936708;29;20048;-76
2023/09/26 02:00:53;;;;;;;4.70;2.10;;;;;;;17.18;54.43;100462.97;4936817;29;20071;-75
2023/09/26 02:03:19;;;;;;;7.30;2.30;;;;;;;17.18;54.47;100452.31;4936410;29;20408;-76
2023/09/26 02:05:49;;;;;;;7.63;2.63;;;;;;;17.17;54.69;100451.50;4936620;29;20047;-76
2023/09/26 02:08:16;;;;;;;3.58;2.47;;;;;;;17.19;54.72;100459.34;4936502;29;20063;-77
2023/09/26 02:10:42;;;;;;;2.67;2.00;;;;;;;17.19;54.54;100456.66;4935989;29;20107;-74
2023/09/26 02:13:09;;;;;;;3.42;2.22;;;;;;;17.17;54.95;100451.50;4936428;29;20055;-77
2023/09/26 02:15:36;;;;;;;2.90;2.20;;;;;;;17.17;54.74;100453.28;4935976;29;20054;-75
2023/09/26 02:18:03;;;;;;;7.07;2.30;;;;;;;17.14;54.54;100448.19;4936306;29;20083;-74
2023/09/26 02:20:30;;;;;;;4.32;2.10;;;;;;;17.12;54.80;100442.16;4936565;29;20044;-76
2023/09/26 02:22:57;;;;;;;3.00;2.17;;;;;;;17.09;55.11;100437.91;4936141;29;20044;-76
2023/09/26 02:25:24;;;;;;;3.72;2.08;;;;;;;17.08;54.57;100443.34;4935947;29;20052;-74
2023/09/26 02:27:51;;;;;;;3.33;2.10;;;;;;;17.05;54.62;100439.91;4935947;29;20408;-75
2023/09/26 02:30:20;;;;;;;4.55;2.40;;;;;;;17.04;54.36;100443.56;4936348;29;20526;-79
2023/09/26 02:32:47;;;;;;;4.82;2.28;;;;;;;17.04;54.72;100438.22;4935941;29;20048;-76
2023/09/26 02:35:19;;;;;;;3.88;2.30;;;;;;;17.04;54.91;100432.91;4935904;29;20052;-77
2023/09/26 02:37:46;;;;;;;4.07;2.38;;;;;;;17.03;54.84;100431.19;4935685;29;20684;-75
2023/09/26 02:40:12;;;;;;;4.18;2.45;;;;;;;17.03;54.69;100430.34;4936180;29;20059;-76
2023/09/26 02:42:43;;;;;;;2.88;2.30;;;;;;;17.01;54.57;100433.09;4936100;29;20060;-73
2023/09/26 02:45:12;;;;;;;2.70;2.10;;;;;;;17.01;54.55;100435.75;4935965;29;20040;-75
2023/09/26 02:47:39;;;;;;;2.72;1.95;;;;;;;17.01;54.55;100421.63;4935421;29;20500;-79
2023/09/26 02:50:07;;;;;;;4.63;2.42;;;;;;;16.99;54.65;100426.19;4935840;29;20130;-76
2023/09/26 02:52:34;;;;;;;4.32;2.10;;;;;;;16.99;54.97;100423.53;4935489;29;20441;-77
2023/09/26 02:55:02;;;;;;;4.60;2.33;;;;;;;16.98;54.62;100424.50;4935746;29;20122;-75
2023/09/26 02:57:29;;;;;;;3.63;2.25;;;;;;;16.96;54.88;100413.97;4935618;29;20046;-78
2023/09/26 02:59:55;;;;;;;3.72;2.08;;;;;;;16.96;54.64;100415.81;4935580;29;20044;-76
2023/09/26 03:02:22;;;;;;;5.05;2.05;;;;;;;16.96;54.84;100423.78;4935779;29;20126;-76
2023/09/26 03:04:48;;;;;;;2.50;1.80;;;;;;;16.95;54.85;100433.56;4935446;29;20058;-75
2023/09/26 03:07:16;;;;;;;5.05;2.47;;;;;;;16.93;54.54;100419.50;4935366;29;20047;-75
2023/09/26 03:09:43;;;;;;;4.70;2.40;;;;;;;16.91;54.56;100427.63;4934406;29;20058;-75
2023/09/26 03:12:09;;;;;;;3.05;2.17;;;;;;;16.90;54.50;100425.06;4950386;29;20048;-76
2023/09/26 03:14:36;;;;;;;3.80;2.40;;;;;;;16.88;54.87;100424.31;4949917;29;20079;-74
2023/09/26 03:17:04;;;;;;;7.40;2.50;;;;;;;16.88;54.61;100429.63;4935274;29;20048;-74
2023/09/26 03:19:30;;;;;;;3.35;2.20;;;;;;;16.85;54.85;100428.06;4935217;29;20091;-79
2023/09/26 03:21:57;;;;;;;3.00;2.42;;;;;;;16.84;54.76;100426.38;4927634;29;20062;-74
2023/09/26 03:24:23;;;;;;;7.32;2.65;;;;;;;16.83;54.73;100429.13;4934884;29;20103;-76
2023/09/26 03:26:50;;;;;;;3.95;2.40;;;;;;;16.80;54.67;100425.75;4935259;29;20131;-74
2023/09/26 03:29:16;;;;;;;4.68;2.70;;;;;;;16.78;54.35;100422.34;4934852;29;20122;-77
2023/09/26 03:31:44;;;;;;;4.68;2.50;;;;;;;16.77;54.72;100420.66;4934903;29;20083;-76
2023/09/26 03:34:11;;;;;;;5.03;2.38;;;;;;;16.77;54.78;100414.47;4934774;29;20051;-78
2023/09/26 03:36:38;;;;;;;3.15;2.13;;;;;;;16.76;54.90;100413.66;4935217;29;20063;-74
2023/09/26 03:39:05;;;;;;;4.28;2.55;;;;;;;16.76;54.80;100418.09;4934943;29;20078;-77
2023/09/26 03:41:32;;;;;;;6.03;2.63;;;;;;;16.75;55.11;100414.56;4931767;29;20079;-75
2023/09/26 03:43:59;;;;;;;4.68;2.50;;;;;;;16.73;54.95;100419.19;4927017;29;20528;-74
2023/09/26 03:46:25;;;;;;;2.38;2.00;;;;;;;16.74;54.84;100420.03;4934843;29;20051;-75
2023/09/26 03:48:52;;;;;;;4.13;2.15;;;;;;;16.73;54.90;100428.94;4934559;29;21293;-75
2023/09/26 03:51:19;;;;;;;4.15;2.30;;;;;;;16.72;54.67;100419.28;4934636;29;20058;-74
2023/09/26 03:53:46;;;;;;;3.40;2.47;;;;;;;16.71;54.64;100428.22;4934413;29;20099;-75
2023/09/26 03:56:12;;;;;;;3.97;1.92;;;;;;;16.71;54.81;100426.41;4934941;29;20131;-77
2023/09/26 03:58:39;;;;;;;3.17;2.22;;;;;;;16.70;54.69;100426.53;4934281;29;20054;-75
2023/09/26 04:01:14;;;;;;;3.42;2.22;;;;;;;16.70;54.51;100427.38;4933838;29;20051;-75
2023/09/26 04:03:43;;;;;;;3.92;2.45;;;;;;;16.70;55.22;100421.22;4931691;29;20056;-76
2023/09/26 04:06:10;;;;;;;3.05;2.15;;;;;;;16.71;54.89;100417.59;4934034;29;20059;-73
2023/09/26 04:08:36;;;;;;;6.43;2.30;;;;;;;16.71;54.81;100415.75;4933923;29;20075;-76
2023/09/26 04:11:04;;;;;;;5.47;2.42;;;;;;;16.70;54.94;100419.38;4934086;29;20079;-75
2023/09/26 04:13:30;;;;;;;3.80;2.20;;;;;;;16.69;54.94;100428.34;4933902;29;20493;-74
2023/09/26 04:15:57;;;;;;;2.88;2.10;;;;;;;16.69;55.06;100431.00;4933276;29;20055;-76
2023/09/26 04:18:25;;;;;;;2.50;2.22;;;;;;;16.69;54.81;100423.00;4932946;29;20102;-75
2023/09/26 04:20:52;;;;;;;3.05;2.40;;;;;;;16.68;54.99;100416.84;4934382;29;20048;-76
2023/09/26 04:23:19;;;;;;;3.75;2.40;;;;;;;16.68;54.89;100416.00;4933872;29;20040;-77
2023/09/26 04:25:45;;;;;;;4.25;2.20;;;;;;;16.67;54.87;100419.59;4933444;29;20063;-74
2023/09/26 04:28:12;;;;;;;3.55;2.67;;;;;;;16.66;54.65;100416.13;4934184;29;20087;-76
2023/09/26 04:30:39;;;;;;;2.92;2.08;;;;;;;16.66;54.67;100408.13;4933424;29;20063;-76
2023/09/26 04:33:07;;;;;;;4.00;2.30;;;;;;;16.66;55.04;100401.97;4933762;29;20052;-77
2023/09/26 04:35:35;;;;;;;4.93;2.47;;;;;;;16.66;54.62;100399.31;4933268;29;20106;-76
2023/09/26 04:38:03;;;;;;;2.95;2.08;;;;;;;16.65;54.88;100394.94;4933549;29;20052;-76
2023/09/26 04:40:30;;;;;;;3.92;2.42;;;;;;;16.64;54.66;100396.75;4933712;29;20054;-74
2023/09/26 04:43:04;;;;;;;4.10;2.70;;;;;;;16.60;55.14;100395.28;4931142;29;20051;-77
2023/09/26 04:45:31;;;;;;;5.20;2.50;;;;;;;16.63;54.60;100396.88;4916726;29;20063;-77
2023/09/26 04:48:01;;;;;;;4.88;2.47;;;;;;;16.58;54.93;100394.56;4933607;29;20060;-78
2023/09/26 04:50:29;;;;;;;3.40;2.33;;;;;;;16.57;54.94;100387.53;4933794;29;20080;-73
2023/09/26 04:52:58;;;;;;;3.45;2.60;;;;;;;16.54;54.69;100388.63;4933292;29;20398;-75
2023/09/26 04:55:26;;;;;;;3.90;2.20;;;;;;;16.52;54.77;100390.53;4933485;29;20091;-74
2023/09/26 04:57:53;;;;;;;3.90;2.40;;;;;;;16.51;54.87;100385.31;4933416;29;20051;-76
2023/09/26 05:00:19;;;;;;;4.80;2.35;;;;;;;16.49;55.40;100384.59;4933558;29;20051;-77
2023/09/26 05:02:51;;;;;;;3.13;2.60;;;;;;;16.45;55.43;100386.59;4933376;29;20453;-75
2023/09/26 05:05:19;;;;;;;4.30;2.40;;;;;;;16.45;55.19;100383.94;4933308;29;20057;-76
2023/09/26 05:07:46;;;;;;;3.13;2.40;;;;;;;16.45;55.40;100386.59;4933437;29;20110;-75
2023/09/26 05:10:13;;;;;;;4.30;2.75;;;;;;;16.44;55.57;100386.75;4933065;29;20059;-74
2023/09/26 05:12:42;;;;;;;5.30;2.47;;;;;;;16.42;55.46;100382.34;4933839;29;20047;-76
2023/09/26 05:15:12;;;;;;;7.85;2.53;;;;;;;16.40;55.24;100381.63;4926142;29;20047;-73
2023/09/26 05:17:49;;;;;;;3.50;2.65;;;;;;;16.37;55.79;100375.69;4933489;29;20059;-75
2023/09/26 05:20:17;;;;;;;4.47;2.85;;;;;;;16.39;55.17;100384.41;4934886;29;20183;-73
2023/09/26 05:22:46;;;;;;;4.32;2.45;;;;;;;16.37;55.38;100379.19;4936872;29;20090;-75
2023/09/26 05:25:13;;;;;;;5.40;2.67;;;;;;;16.37;55.31;100375.69;4928287;29;20107;-75
2023/09/26 05:27:41;;;;;;;5.70;2.70;;;;;;;16.36;55.46;100379.28;4937298;29;20056;-75
2023/09/26 05:30:11;;;;;;;2.83;2.10;;;;;;;16.36;55.75;100387.25;4929303;29;20137;-76
2023/09/26 05:32:39;;;;;;;2.88;1.90;;;;;;;16.34;55.64;100383.88;4936848;29;20103;-74
2023/09/26 05:35:07;;;;;;;2.95;2.45;;;;;;;16.35;55.54;100385.56;4935432;29;20501;-75
2023/09/26 05:37:34;;;;;;;3.00;2.28;;;;;;;16.34;55.45;100383.88;4937065;29;20054;-74
2023/09/26 05:40:06;;;;;;;3.25;2.45;;;;;;;16.35;55.44;100373.16;4937022;29;20086;-75
2023/09/26 05:42:34;;;;;;;4.07;2.38;;;;;;;16.36;55.42;100371.31;4932568;29;20469;-75
2023/09/26 05:45:03;;;;;;;3.20;2.15;;;;;;;16.36;55.49;100368.66;4936655;29;20055;-75
2023/09/26 05:47:29;;;;;;;3.72;2.40;;;;;;;16.38;55.63;100374.72;4929510;29;20040;-75
2023/09/26 05:49:56;;;;;;;4.05;2.38;;;;;;;16.39;55.57;100384.41;4917583;29;20087;-76
2023/09/26 05:52:23;;;;;;;9.13;2.55;;;;;;;16.40;55.69;100384.28;4933951;29;20050;-77
2023/09/26 05:54:50;;;;;;;3.72;2.40;;;;;;;16.42;55.55;100381.53;4936483;29;20044;-74
2023/09/26 05:57:18;;;;;;;3.42;2.30;;;;;;;16.46;55.75;100392.78;4936611;29;20564;-75
2023/09/26 05:59:44;;;;;;;2.92;2.08;;;;;;;16.47;55.73;100389.16;4936534;29;20093;-75
2023/09/26 06:02:13;;;;;;;4.53;2.45;;;;;;;16.50;55.75;100387.13;4935947;29;20048;-76
2023/09/26 06:04:43;;;;;;;5.32;2.30;;;;;;;16.53;55.75;100388.72;4936559;29;20052;-72
2023/09/26 06:07:11;;;;;;;3.38;2.17;;;;;;;16.55;55.59;100381.47;4936495;29;20478;-72
2023/09/26 06:09:38;;;;;;;3.30;2.00;;;;;;;16.59;55.65;100382.94;4936358;29;20413;-73
2023/09/26 06:12:18;;;;;;;4.70;2.10;;;;;;;16.63;55.66;100380.94;4935850;29;20083;-77
2023/09/26 06:14:46;;;;;;;3.53;2.53;;;;;;;16.66;55.94;100380.69;4935905;29;20055;-76
2023/09/26 06:17:12;;;;;;;3.92;2.22;;;;;;;16.68;55.61;100378.78;4936394;29;20575;-73
2023/09/26 06:19:44;;;;;;;4.47;2.38;;;;;;;16.72;56.09;100380.25;4936605;29;20098;-75
2023/09/26 06:22:11;;;;;;;2.97;2.00;;;;;;;16.76;56.00;100383.53;4936551;29;20489;-75
2023/09/26 06:24:38;;;;;;;2.58;2.00;;;;;;;16.80;55.96;100371.72;4935964;29;20056;-74
2023/09/26 06:27:05;;;;;;;3.45;2.20;;;;;;;16.85;55.90;100372.22;4935545;29;20043;-79
2023/09/26 06:29:31;;;;;;;3.72;2.10;;;;;;;16.88;55.68;100371.16;4936096;29;20079;-77
2023/09/26 06:31:58;;;;;;;3.25;1.85;;;;;;;16.91;55.59;100371.78;4935345;29;20052;-75
2023/09/26 06:34:25;;;;;;;3.38;1.90;;;;;;;16.96;55.58;100379.41;4935564;29;20052;-75
2023/09/26 06:36:52;;;;;;;3.00;2.20;;;;;;;16.99;55.67;100384.50;4928117;29;20104;-73
2023/09/26 06:39:19;;;;;;;3.92;2.25;;;;;;;17.04;55.48;100385.03;4936093;29;20091;-74
2023/09/26 06:41:46;;;;;;;2.45;1.90;;;;;;;17.09;55.88;100389.16;4936071;29;20058;-78
2023/09/26 06:44:13;;;;;;;2.97;1.85;;;;;;;17.13;55.63;100380.84;4935242;29;20071;-75
2023/09/26 06:46:39;;;;;;;3.40;2.40;;;;;;;17.18;55.68;100383.16;4935851;29;20465;-74
2023/09/26 06:49:06;;;;;;;4.00;2.30;;;;;;;17.22;55.64;100379.31;4935452;29;20103;-75
2023/09/26 06:51:35;;;;;;;3.05;2.33;;;;;;;17.26;55.44;100383.44;4936006;29;20075;-73
2023/09/26 06:54:02;;;;;;;3.25;2.05;;;;;;;17.30;55.27;100398.19;4934936;29;20106;-77
2023/09/26 06:56:29;;;;;;;3.67;2.10;;;;;;;17.34;55.03;100396.16;4935696;29;20134;-74
2023/09/26 06:58:56;;;;;;;2.58;1.92;;;;;;;17.38;55.29;100392.28;4935329;29;20100;-75
2023/09/26 07:01:22;;;;;;;3.10;2.25;;;;;;;17.42;55.14;100384.94;4935716;29;20478;-75
2023/09/26 07:03:49;;;;;;;3.75;2.10;;;;;;;17.46;55.24;100383.75;4934764;29;20053;-75
2023/09/26 07:06:16;;;;;;;5.68;2.50;;;;;;;17.50;54.96;100382.56;4926426;29;20043;-75
2023/09/26 07:08:44;;;;;;;4.47;2.42;;;;;;;17.54;54.94;100381.31;4949881;29;20055;-74
2023/09/26 07:11:11;;;;;;;3.22;2.08;;;;;;;17.60;54.94;100384.50;4935608;29;20102;-74
2023/09/26 07:13:39;;;;;;;4.32;2.40;;;;;;;17.65;55.25;100387.66;4935144;29;20142;-77
2023/09/26 07:16:08;;;;;;;3.42;2.20;;;;;;;17.70;55.16;100380.16;4934614;29;20059;-77
2023/09/26 07:18:37;;;;;;;4.13;1.95;;;;;;;17.78;55.23;100383.06;4935151;29;20059;-73
2023/09/26 07:21:06;;;;;;;3.28;2.08;;;;;;;17.84;55.00;100393.22;4934860;29;20135;-77
2023/09/26 07:23:34;;;;;;;3.92;1.98;;;;;;;17.93;55.05;100401.47;4934681;29;20055;-75
2023/09/26 07:26:20;;;;;;;3.90;2.58;;;;;;;17.95;55.11;100395.06;4934441;29;20465;-75
2023/09/26 07:28:47;;;;;;;4.63;2.50;;;;;;;18.06;55.13;100396.06;4934854;29;20052;-77
2023/09/26 07:31:16;;;;;;;6.30;2.17;;;;;;;18.13;54.87;100397.28;4934745;29;20135;-78
2023/09/26 07:33:44;;;;;;;4.68;2.35;;;;;;;18.20;54.86;100398.50;4934595;29;20115;-75
2023/09/26 07:36:11;;;;;;;3.65;2.33;;;;;;;18.28;55.02;100394.38;4933700;29;20587;-74
2023/09/26 07:38:38;;;;;;;3.05;2.08;;;;;;;18.35;54.95;100400.91;4934685;29;20136;-74
2023/09/26 07:41:04;;;;;;;5.63;2.90;;;;;;;18.41;54.84;100403.09;4934388;29;20432;-76
2023/09/26 07:43:34;;;;;;;3.10;2.20;;;;;;;18.47;54.80;100405.25;4933932;29;20078;-78
2023/09/26 07:46:09;;;;;;;3.47;2.40;;;;;;;18.53;54.60;100414.59;4934358;29;20063;-74
2023/09/26 07:48:37;;;;;;;6.30;2.83;;;;;;;18.63;54.51;100409.38;4934267;29;20089;-77
2023/09/26 07:51:06;;;;;;;6.22;2.60;;;;;;;18.69;54.80;100408.03;4934601;29;20047;-77
2023/09/26 07:53:33;;;;;;;4.68;2.55;;;;;;;18.74;54.33;100404.03;4934447;29;20044;-72
2023/09/26 07:56:00;;;;;;;3.60;2.30;;;;;;;18.81;54.70;100400.84;4934103;29;20062;-77
2023/09/26 07:58:27;;;;;;;3.42;2.42;;;;;;;18.87;54.27;100406.50;4926746;29;20070;-75
2023/09/26 08:00:58;;;;;;;3.72;2.55;;;;;;;18.93;54.44;100409.66;4934320;29;20055;-76
2023/09/26 08:03:25;;;;;;;4.55;2.78;;;;;;;18.97;54.18;100397.75;4934618;29;20048;-77
2023/09/26 08:06:04;;;;;;;7.78;2.50;;;;;;;18.98;54.24;100400.28;4934528;29;20051;-75
2023/09/26 08:08:31;;;;;;;3.15;2.25;;;;;;;19.07;54.25;100401.41;4934450;29;20047;-76
2023/09/26 08:11:09;;;;;;;3.42;2.47;;;;;;;19.08;54.20;100399.56;4933666;29;20058;-76
2023/09/26 08:13:38;;;;;;;2.75;2.50;;;;;;;19.16;53.88;100390.91;4934127;29;20045;-79
2023/09/26 08:16:05;;;;;;;3.15;2.50;;;;;;;19.22;54.15;100398.41;4934064;29;20052;-76
2023/09/26 08:18:32;;;;;;;4.15;2.72;;;;;;;19.26;54.30;100391.84;4934378;29;20048;-75
2023/09/26 08:20:59;;;;;;;3.38;2.15;;;;;;;19.32;54.47;100396.66;4933892;29;20059;-78
2023/09/26 08:23:25;;;;;;;3.22;2.17;;;;;;;19.38;54.40;100392.63;4933914;29;20516;-75
2023/09/26 08:26:01;;;;;;;3.30;2.45;;;;;;;19.43;54.09;100400.28;4933920;29;20047;-79
2023/09/26 08:28:31;;;;;;;4.43;2.30;;;;;;;19.54;54.37;100400.19;4933945;29;20521;-75
2023/09/26 08:31:07;;;;;;;4.82;2.45;;;;;;;19.59;54.46;100400.63;4948407;29;20087;-74
2023/09/26 08:33:35;;;;;;;2.97;2.28;;;;;;;19.69;54.25;100398.03;4934141;29;20050;-76
2023/09/26 08:36:11;;;;;;;3.78;2.40;;;;;;;19.75;54.21;100391.31;4933486;29;20044;-74
2023/09/26 08:38:38;;;;;;;4.25;2.70;;;;;;;19.84;54.00;100393.19;4933408;29;20126;-76
2023/09/26 08:41:05;;;;;;;4.13;2.30;;;;;;;19.90;53.87;100391.81;4933208;29;20055;-76
2023/09/26 08:43:33;;;;;;;3.53;2.00;;;;;;;19.97;53.77;100392.13;4930471;29;20126;-74
2023/09/26 08:45:59;;;;;;;3.30;2.03;;;;;;;20.03;53.81;100386.28;4933926;29;20131;-75
2023/09/26 08:48:26;;;;;;;5.10;2.17;;;;;;;20.11;53.59;100389.13;4933857;29;20559;-77
2023/09/26 08:50:53;;;;;;;4.68;2.10;;;;;;;20.18;53.59;100392.13;4933374;29;20056;-78
2023/09/26 08:53:20;;;;;;;3.38;2.05;;;;;;;20.26;53.78;100389.63;4933257;29;20796;-76
2023/09/26 08:55:49;;;;;;;3.40;2.30;;;;;;;20.33;53.56;100395.25;4933744;29;20135;-74
2023/09/26 08:58:16;;;;;;;4.13;2.30;;;;;;;20.41;53.49;100395.44;4933642;29;20063;-74
2023/09/26 09:00:43;;;;;;;10.40;2.13;;;;;;;20.49;53.60;100400.13;4933134;29;20062;-76
2023/09/26 09:03:10;;;;;;;3.47;2.60;;;;;;;20.56;53.14;100400.41;4933212;29;20101;-77
2023/09/26 09:05:40;;;;;;;3.50;2.17;;;;;;;20.63;53.01;100398.88;4932991;29;20059;-76
2023/09/26 09:08:08;;;;;;;5.80;2.30;;;;;;;20.70;52.33;100391.13;4933427;29;20402;-76
2023/09/26 09:10:52;;;;;;;3.35;2.08;;;;;;;20.72;51.86;100394.53;4926242;29;20052;-76
2023/09/26 09:13:37;;;;;;;2.88;2.20;;;;;;;20.79;51.71;100390.28;4932791;29;20503;-76
2023/09/26 09:16:10;;;;;;;3.53;2.22;;;;;;;20.85;51.31;100398.78;4933336;29;20054;-76
2023/09/26 09:18:39;;;;;;;3.00;2.15;;;;;;;20.89;51.92;100395.69;4932473;29;20154;-74
2023/09/26 09:21:30;;;;;;;3.30;2.40;;;;;;;20.88;51.11;100393.16;4933350;29;20139;-75
2023/09/26 09:24:06;;;;;;;2.97;2.05;;;;;;;20.92;51.31;100392.75;4932931;29;20533;-75
2023/09/26 09:26:35;;;;;;;2.67;2.08;;;;;;;20.96;51.99;100383.47;4933347;29;20055;-75
2023/09/26 09:29:21;;;;;;;3.55;2.10;;;;;;;20.95;52.06;100387.13;4932112;29;20054;-76
2023/09/26 09:31:48;;;;;;;3.88;2.50;;;;;;;21.04;51.63;100381.91;4933078;29;20143;-75
2023/09/26 09:34:16;;;;;;;6.55;2.50;;;;;;;21.05;51.39;100384.44;4932798;29;20440;-76
2023/09/26 09:36:44;;;;;;;3.13;2.53;;;;;;;21.07;51.27;100374.44;4933233;29;20044;-77
2023/09/26 09:39:11;;;;;;;4.75;2.42;;;;;;;21.09;51.41;100372.47;4932848;29;20560;-80
2023/09/26 09:41:38;;;;;;;3.25;2.25;;;;;;;21.13;51.58;100366.81;4933338;29;20064;-75
2023/09/26 09:44:05;;;;;;;4.43;2.40;;;;;;;21.16;51.37;100362.03;4932537;29;20127;-74
2023/09/26 09:46:38;;;;;;;4.15;2.30;;;;;;;21.18;51.02;100365.41;4932843;29;20134;-77
2023/09/26 09:49:11;;;;;;;2.95;2.30;;;;;;;21.23;51.03;100356.94;4933261;29;20102;-76
2023/09/26 09:51:43;;;;;;;5.00;2.42;;;;;;;21.28;51.01;100360.06;4925930;29;20067;-75
2023/09/26 09:54:13;;;;;;;3.42;2.17;;;;;;;21.34;50.76;100361.31;4932677;29;20089;-76
2023/09/26 09:56:49;;;;;;;3.17;2.25;;;;;;;21.39;50.59;100353.72;4931946;29;20054;-76
2023/09/26 09:59:21;;;;;;;4.57;2.60;;;;;;;21.46;52.12;100352.13;4932851;29;20056;-75
2023/09/26 10:01:50;;;;;;;3.17;2.45;;;;;;;21.55;52.11;100344.22;4933084;29;20214;-78
2023/09/26 10:04:18;;;;;;;2.97;2.13;;;;;;;21.64;52.00;100342.50;4932411;29;20075;-77
2023/09/26 10:06:45;;;;;;;2.65;2.15;;;;;;;21.76;51.60;100352.09;4935235;29;20416;-76
2023/09/26 10:09:17;;;;;;;3.55;1.90;;;;;;;21.87;51.19;100349.22;4936401;29;20059;-78
2023/09/26 10:11:44;;;;;;;4.32;2.28;;;;;;;22.00;51.60;100351.56;4929420;29;20159;-76
2023/09/26 10:14:12;;;;;;;3.03;2.00;;;;;;;22.13;51.60;100353.91;4935836;29;20043;-75
2023/09/26 10:16:39;;;;;;;5.10;2.20;;;;;;;22.29;52.17;100351.56;4929150;29;20098;-77
2023/09/26 10:19:06;;;;;;;4.45;1.85;;;;;;;22.45;52.29;100341.03;4936811;29;20163;-75
2023/09/26 10:21:32;;;;;;;2.67;1.83;;;;;;;22.61;51.85;100339.56;4936410;29;20054;-77
2023/09/26 10:24:05;;;;;;;3.85;1.80;;;;;;;22.74;50.71;100334.66;4936014;29;20051;-78
2023/09/26 10:26:33;;;;;;;2.05;1.90;;;;;;;22.93;50.68;100327.41;4935929;29;20044;-78
2023/09/26 10:29:06;;;;;;;2.35;1.90;;;;;;;23.08;49.62;100332.22;4936179;29;20150;-76
2023/09/26 10:31:33;;;;;;;5.50;2.15;;;;;;;23.25;50.00;100328.66;4936317;29;20052;-80
2023/09/26 10:34:01;;;;;;;6.28;1.77;;;;;;;23.40;49.87;100328.16;4935948;29;20055;-73
2023/09/26 10:36:29;;;;;;;2.28;1.95;;;;;;;23.56;49.24;100322.84;4936007;29;20712;-76
2023/09/26 10:39:00;;;;;;;4.13;2.00;;;;;;;23.69;49.54;100322.44;4936262;29;20056;-76
2023/09/26 10:41:29;;;;;;;1.95;1.75;;;;;;;23.87;49.70;100320.66;4935451;29;20048;-77
2023/09/26 10:43:56;;;;;;;2.85;2.20;;;;;;;24.01;49.57;100322.75;4936001;29;20101;-77
2023/09/26 10:46:27;;;;;;;4.47;2.00;;;;;;;24.16;49.02;100322.16;4935261;29;20637;-75
2023/09/26 10:48:56;;;;;;;3.05;1.85;;;;;;;24.27;47.38;100316.47;4935314;29;20425;-76
2023/09/26 10:51:23;;;;;;;2.45;1.75;;;;;;;24.41;47.85;100314.97;4933296;29;20060;-75
2023/09/26 10:53:50;;;;;;;2.47;1.70;;;;;;;24.53;47.55;100309.28;4935589;29;20047;-76
2023/09/26 10:56:17;;;;;;;3.42;1.98;;;;;;;24.64;48.20;100302.75;4935707;29;20497;-75
2023/09/26 10:58:45;;;;;;;3.72;1.90;;;;;;;24.75;47.13;100299.75;4927907;29;20052;-76
2023/09/26 11:01:11;;;;;;;2.35;1.80;;;;;;;24.90;48.30;100304.47;4935170;29;20126;-77
2023/09/26 11:03:38;;;;;;;3.97;1.95;;;;;;;25.06;47.61;100300.91;4935041;29;20525;-77
2023/09/26 11:06:07;;;;;;;4.32;1.90;;;;;;;25.22;47.02;100305.44;4935673;29;20047;-75
2023/09/26 11:08:35;;;;;;;2.95;1.77;;;;;;;25.40;47.03;100307.09;4934991;29;20481;-76
2023/09/26 11:11:02;;;;;;;2.17;1.63;;;;;;;25.62;47.11;100303.72;4934932;29;20056;-73
2023/09/26 11:13:30;;;;;;;3.92;1.70;;;;;;;25.96;47.51;100312.53;4935401;29;20079;-74
2023/09/26 11:15:57;;;;;;;1.95;1.63;;;;;;;26.46;49.85;100306.88;4934917;29;20599;-78
2023/09/26 11:18:24;;;;;;;2.83;1.95;;;;;;;27.13;48.82;100301.81;4934065;29;20063;-75
2023/09/26 11:20:51;;;;;;;2.50;1.80;;;;;;;27.87;47.98;100299.34;4935374;29;20139;-76
2023/09/26 11:23:39;;;;;;;2.70;1.85;;;;;;;28.71;43.91;100294.41;4935403;29;20047;-75
2023/09/26 11:26:08;;;;;;;1.50;1.40;;;;;;;29.33;43.98;100293.03;4935099;29;20055;-76
2023/09/26 11:28:35;;;;;;;3.65;1.77;;;;;;;29.85;42.94;100298.16;4935136;29;20047;-75